sensor_id;sensor_type;location;lat;lon;timestamp;P1;durP1;ratioP1;P2;durP2;ratioP2
948;SDS011;461;51.436;7.312;2023-09-19T00:01:08;3.27;;;1.87;;
948;SDS011;461;51.436;7.312;2023-09-19T00:03:34;7.07;;;2.43;;
948;SDS011;461;51.436;7.312;2023-09-19T00:06:05;5.03;;;2.43;;
948;SDS011;461;51.436;7.312;2023-09-19T00:08:34;4.80;;;2.57;;
948;SDS011;461;51.436;7.312;2023-09-19T00:10:59;4.37;;;2.30;;
948;SDS011;461;51.436;7.312;2023-09-19T00:13:31;10.40;;;2.00;;
948;SDS011;461;51.436;7.312;2023-09-19T00:15:57;5.67;;;2.23;;
948;SDS011;461;51.436;7.312;2023-09-19T00:18:24;8.73;;;2.50;;
948;SDS011;461;51.436;7.312;2023-09-19T00:21:00;7.33;;;2.47;;
948;SDS011;461;51.436;7.312;2023-09-19T00:23:26;6.90;;;2.47;;
948;SDS011;461;51.436;7.312;2023-09-19T00:25:53;3.00;;;2.00;;
948;SDS011;461;51.436;7.312;2023-09-19T00:28:22;6.47;;;2.57;;
948;SDS011;461;51.436;7.312;2023-09-19T00:30:48;4.73;;;2.50;;
948;SDS011;461;51.436;7.312;2023-09-19T00:33:17;5.67;;;2.23;;
948;SDS011;461;51.436;7.312;2023-09-19T00:35:47;9.67;;;2.37;;
948;SDS011;461;51.436;7.312;2023-09-19T00:38:14;10.80;;;2.30;;
948;SDS011;461;51.436;7.312;2023-09-19T00:40:46;5.60;;;2.60;;
948;SDS011;461;51.436;7.312;2023-09-19T00:43:12;7.30;;;2.33;;
948;SDS011;461;51.436;7.312;2023-09-19T00:45:38;7.10;;;2.20;;
948;SDS011;461;51.436;7.312;2023-09-19T00:48:07;9.83;;;2.40;;
948;SDS011;461;51.436;7.312;2023-09-19T00:50:34;7.10;;;2.43;;
948;SDS011;461;51.436;7.312;2023-09-19T00:53:01;6.53;;;2.50;;
948;SDS011;461;51.436;7.312;2023-09-19T00:55:46;5.30;;;2.87;;
948;SDS011;461;51.436;7.312;2023-09-19T00:58:12;7.33;;;2.30;;
948;SDS011;461;51.436;7.312;2023-09-19T01:00:38;5.17;;;2.40;;
948;SDS011;461;51.436;7.312;2023-09-19T01:03:05;7.67;;;2.07;;
948;SDS011;461;51.436;7.312;2023-09-19T01:05:33;8.10;;;2.43;;
948;SDS011;461;51.436;7.312;2023-09-19T01:07:59;5.03;;;1.97;;
948;SDS011;461;51.436;7.312;2023-09-19T01:10:26;20.03;;;2.97;;
948;SDS011;461;51.436;7.312;2023-09-19T01:18:16;7.50;;;2.50;;
948;SDS011;461;51.436;7.312;2023-09-19T01:21:07;4.80;;;2.53;;
948;SDS011;461;51.436;7.312;2023-09-19T01:32:09;4.70;;;2.07;;
948;SDS011;461;51.436;7.312;2023-09-19T01:34:48;9.57;;;2.40;;
948;SDS011;461;51.436;7.312;2023-09-19T01:37:15;10.23;;;3.23;;
948;SDS011;461;51.436;7.312;2023-09-19T01:39:45;8.70;;;2.17;;
948;SDS011;461;51.436;7.312;2023-09-19T01:53:26;5.33;;;2.30;;
948;SDS011;461;51.436;7.312;2023-09-19T01:55:55;3.70;;;1.80;;
948;SDS011;461;51.436;7.312;2023-09-19T02:00:55;7.37;;;2.33;;
948;SDS011;461;51.436;7.312;2023-09-19T02:03:23;3.97;;;2.10;;
948;SDS011;461;51.436;7.312;2023-09-19T02:05:53;6.33;;;2.53;;
948;SDS011;461;51.436;7.312;2023-09-19T02:08:19;6.60;;;3.40;;
948;SDS011;461;51.436;7.312;2023-09-19T02:10:49;11.77;;;2.87;;
948;SDS011;461;51.436;7.312;2023-09-19T02:13:15;5.10;;;2.30;;
948;SDS011;461;51.436;7.312;2023-09-19T02:15:42;7.00;;;2.40;;
948;SDS011;461;51.436;7.312;2023-09-19T02:18:11;5.87;;;2.20;;
948;SDS011;461;51.436;7.312;2023-09-19T02:20:38;3.87;;;2.13;;
948;SDS011;461;51.436;7.312;2023-09-19T02:23:04;9.70;;;2.23;;
948;SDS011;461;51.436;7.312;2023-09-19T02:25:30;7.27;;;2.43;;
948;SDS011;461;51.436;7.312;2023-09-19T02:27:57;6.80;;;3.07;;
948;SDS011;461;51.436;7.312;2023-09-19T02:30:25;5.73;;;1.97;;
948;SDS011;461;51.436;7.312;2023-09-19T02:32:51;6.00;;;2.90;;
948;SDS011;461;51.436;7.312;2023-09-19T02:35:17;7.30;;;2.67;;
948;SDS011;461;51.436;7.312;2023-09-19T02:37:45;7.37;;;2.37;;
948;SDS011;461;51.436;7.312;2023-09-19T02:40:14;8.43;;;2.47;;
948;SDS011;461;51.436;7.312;2023-09-19T02:42:54;9.13;;;2.33;;
948;SDS011;461;51.436;7.312;2023-09-19T02:45:21;8.40;;;2.40;;
948;SDS011;461;51.436;7.312;2023-09-19T02:47:48;3.87;;;2.30;;
948;SDS011;461;51.436;7.312;2023-09-19T02:50:14;6.27;;;2.00;;
948;SDS011;461;51.436;7.312;2023-09-19T02:52:41;5.50;;;2.43;;
948;SDS011;461;51.436;7.312;2023-09-19T02:55:08;4.80;;;2.27;;
948;SDS011;461;51.436;7.312;2023-09-19T02:57:35;4.77;;;2.10;;
948;SDS011;461;51.436;7.312;2023-09-19T03:00:06;6.67;;;2.00;;
948;SDS011;461;51.436;7.312;2023-09-19T03:02:33;6.83;;;3.00;;
948;SDS011;461;51.436;7.312;2023-09-19T03:05:00;7.40;;;2.80;;
948;SDS011;461;51.436;7.312;2023-09-19T03:07:27;12.97;;;3.30;;
948;SDS011;461;51.436;7.312;2023-09-19T03:09:53;9.03;;;3.57;;
948;SDS011;461;51.436;7.312;2023-09-19T03:12:20;6.90;;;2.23;;
948;SDS011;461;51.436;7.312;2023-09-19T03:14:46;7.40;;;2.37;;
948;SDS011;461;51.436;7.312;2023-09-19T03:17:11;5.43;;;1.90;;
948;SDS011;461;51.436;7.312;2023-09-19T03:19:39;11.03;;;2.87;;
948;SDS011;461;51.436;7.312;2023-09-19T03:22:05;3.97;;;2.37;;
948;SDS011;461;51.436;7.312;2023-09-19T03:24:32;7.50;;;2.50;;
948;SDS011;461;51.436;7.312;2023-09-19T03:27:00;5.80;;;2.80;;
948;SDS011;461;51.436;7.312;2023-09-19T03:29:26;8.37;;;3.10;;
948;SDS011;461;51.436;7.312;2023-09-19T03:31:52;10.53;;;2.87;;
948;SDS011;461;51.436;7.312;2023-09-19T03:34:19;11.03;;;2.23;;
948;SDS011;461;51.436;7.312;2023-09-19T03:36:45;8.33;;;2.70;;
948;SDS011;461;51.436;7.312;2023-09-19T03:39:11;5.30;;;2.43;;
948;SDS011;461;51.436;7.312;2023-09-19T03:41:37;7.10;;;2.73;;
948;SDS011;461;51.436;7.312;2023-09-19T03:44:04;9.70;;;2.43;;
948;SDS011;461;51.436;7.312;2023-09-19T03:46:29;9.00;;;2.30;;
948;SDS011;461;51.436;7.312;2023-09-19T03:48:57;8.43;;;2.23;;
948;SDS011;461;51.436;7.312;2023-09-19T03:51:23;12.93;;;3.50;;
948;SDS011;461;51.436;7.312;2023-09-19T03:53:49;4.53;;;2.20;;
948;SDS011;461;51.436;7.312;2023-09-19T03:56:15;6.00;;;2.07;;
948;SDS011;461;51.436;7.312;2023-09-19T03:58:40;9.53;;;2.70;;
948;SDS011;461;51.436;7.312;2023-09-19T04:01:06;4.73;;;1.90;;
948;SDS011;461;51.436;7.312;2023-09-19T04:03:33;11.37;;;2.50;;
948;SDS011;461;51.436;7.312;2023-09-19T04:06:24;5.83;;;2.73;;
948;SDS011;461;51.436;7.312;2023-09-19T04:08:52;10.53;;;3.83;;
948;SDS011;461;51.436;7.312;2023-09-19T04:11:18;11.27;;;2.47;;
948;SDS011;461;51.436;7.312;2023-09-19T04:13:43;10.83;;;3.00;;
948;SDS011;461;51.436;7.312;2023-09-19T04:16:09;4.67;;;1.90;;
948;SDS011;461;51.436;7.312;2023-09-19T04:18:35;8.57;;;2.73;;
948;SDS011;461;51.436;7.312;2023-09-19T04:21:03;8.47;;;3.63;;
948;SDS011;461;51.436;7.312;2023-09-19T04:23:30;12.70;;;2.27;;
948;SDS011;461;51.436;7.312;2023-09-19T04:25:57;20.70;;;3.37;;
948;SDS011;461;51.436;7.312;2023-09-19T04:28:23;8.43;;;2.87;;
948;SDS011;461;51.436;7.312;2023-09-19T04:30:49;9.80;;;4.17;;
948;SDS011;461;51.436;7.312;2023-09-19T04:33:15;6.93;;;2.60;;
948;SDS011;461;51.436;7.312;2023-09-19T04:35:41;6.20;;;2.27;;
948;SDS011;461;51.436;7.312;2023-09-19T04:38:07;5.60;;;2.67;;
948;SDS011;461;51.436;7.312;2023-09-19T04:40:34;6.73;;;2.10;;
948;SDS011;461;51.436;7.312;2023-09-19T04:43:00;5.77;;;2.40;;
948;SDS011;461;51.436;7.312;2023-09-19T04:45:26;8.70;;;2.77;;
948;SDS011;461;51.436;7.312;2023-09-19T04:47:53;7.67;;;2.43;;
948;SDS011;461;51.436;7.312;2023-09-19T04:50:19;10.70;;;2.80;;
948;SDS011;461;51.436;7.312;2023-09-19T04:52:49;6.23;;;2.17;;
948;SDS011;461;51.436;7.312;2023-09-19T04:55:16;4.83;;;2.50;;
948;SDS011;461;51.436;7.312;2023-09-19T04:57:44;4.53;;;1.80;;
948;SDS011;461;51.436;7.312;2023-09-19T05:00:14;3.63;;;1.97;;
948;SDS011;461;51.436;7.312;2023-09-19T05:02:42;8.53;;;2.73;;
948;SDS011;461;51.436;7.312;2023-09-19T05:05:08;7.70;;;2.90;;
948;SDS011;461;51.436;7.312;2023-09-19T05:07:55;4.63;;;2.50;;
948;SDS011;461;51.436;7.312;2023-09-19T05:10:20;7.13;;;2.50;;
948;SDS011;461;51.436;7.312;2023-09-19T05:12:47;8.00;;;3.03;;
948;SDS011;461;51.436;7.312;2023-09-19T05:15:13;13.93;;;3.20;;
948;SDS011;461;51.436;7.312;2023-09-19T05:17:40;9.70;;;3.37;;
948;SDS011;461;51.436;7.312;2023-09-19T05:20:06;8.80;;;2.63;;
948;SDS011;461;51.436;7.312;2023-09-19T05:22:49;7.00;;;2.20;;
948;SDS011;461;51.436;7.312;2023-09-19T05:25:22;3.90;;;2.33;;
948;SDS011;461;51.436;7.312;2023-09-19T05:27:47;6.50;;;2.80;;
948;SDS011;461;51.436;7.312;2023-09-19T05:30:13;7.07;;;3.60;;
948;SDS011;461;51.436;7.312;2023-09-19T05:32:40;9.27;;;2.70;;
948;SDS011;461;51.436;7.312;2023-09-19T05:35:06;6.30;;;2.73;;
948;SDS011;461;51.436;7.312;2023-09-19T05:37:34;8.97;;;3.40;;
948;SDS011;461;51.436;7.312;2023-09-19T05:40:01;5.63;;;2.50;;
948;SDS011;461;51.436;7.312;2023-09-19T05:42:34;6.83;;;3.67;;
948;SDS011;461;51.436;7.312;2023-09-19T05:45:00;8.13;;;2.43;;
948;SDS011;461;51.436;7.312;2023-09-19T05:47:26;5.93;;;2.00;;
948;SDS011;461;51.436;7.312;2023-09-19T05:49:52;11.77;;;2.90;;
948;SDS011;461;51.436;7.312;2023-09-19T05:52:18;9.17;;;2.67;;
948;SDS011;461;51.436;7.312;2023-09-19T05:54:45;8.97;;;2.80;;
948;SDS011;461;51.436;7.312;2023-09-19T05:57:10;6.97;;;2.97;;
948;SDS011;461;51.436;7.312;2023-09-19T05:59:37;3.80;;;2.47;;
948;SDS011;461;51.436;7.312;2023-09-19T06:02:05;7.83;;;2.30;;
948;SDS011;461;51.436;7.312;2023-09-19T06:04:31;11.80;;;3.33;;
948;SDS011;461;51.436;7.312;2023-09-19T06:06:57;7.33;;;2.53;;
948;SDS011;461;51.436;7.312;2023-09-19T06:09:23;8.13;;;2.93;;
948;SDS011;461;51.436;7.312;2023-09-19T06:11:49;7.00;;;2.53;;
948;SDS011;461;51.436;7.312;2023-09-19T06:14:15;6.60;;;2.50;;
948;SDS011;461;51.436;7.312;2023-09-19T06:16:42;10.57;;;2.50;;
948;SDS011;461;51.436;7.312;2023-09-19T06:19:08;8.73;;;3.20;;
948;SDS011;461;51.436;7.312;2023-09-19T06:21:35;9.37;;;2.83;;
948;SDS011;461;51.436;7.312;2023-09-19T06:24:01;6.90;;;2.50;;
948;SDS011;461;51.436;7.312;2023-09-19T06:26:28;7.40;;;2.07;;
948;SDS011;461;51.436;7.312;2023-09-19T06:28:54;10.13;;;2.93;;
948;SDS011;461;51.436;7.312;2023-09-19T06:31:21;5.53;;;2.70;;
948;SDS011;461;51.436;7.312;2023-09-19T06:33:51;7.80;;;2.80;;
948;SDS011;461;51.436;7.312;2023-09-19T06:36:17;4.73;;;2.33;;
948;SDS011;461;51.436;7.312;2023-09-19T06:38:44;9.43;;;2.63;;
948;SDS011;461;51.436;7.312;2023-09-19T06:41:10;8.20;;;2.77;;
948;SDS011;461;51.436;7.312;2023-09-19T06:43:36;7.20;;;2.77;;
948;SDS011;461;51.436;7.312;2023-09-19T06:46:02;9.20;;;2.40;;
948;SDS011;461;51.436;7.312;2023-09-19T06:48:29;8.37;;;2.50;;
948;SDS011;461;51.436;7.312;2023-09-19T06:50:55;7.87;;;2.10;;
948;SDS011;461;51.436;7.312;2023-09-19T06:53:23;6.53;;;2.50;;
948;SDS011;461;51.436;7.312;2023-09-19T06:55:52;9.53;;;2.37;;
948;SDS011;461;51.436;7.312;2023-09-19T06:58:19;11.43;;;2.70;;
948;SDS011;461;51.436;7.312;2023-09-19T07:00:45;8.30;;;2.70;;
948;SDS011;461;51.436;7.312;2023-09-19T07:03:13;7.73;;;3.17;;
948;SDS011;461;51.436;7.312;2023-09-19T07:05:39;10.73;;;2.50;;
948;SDS011;461;51.436;7.312;2023-09-19T07:08:06;10.03;;;2.60;;
948;SDS011;461;51.436;7.312;2023-09-19T07:10:33;13.10;;;2.57;;
948;SDS011;461;51.436;7.312;2023-09-19T07:13:00;8.33;;;1.87;;
948;SDS011;461;51.436;7.312;2023-09-19T07:15:27;10.10;;;2.83;;
948;SDS011;461;51.436;7.312;2023-09-19T07:17:56;8.87;;;2.60;;
948;SDS011;461;51.436;7.312;2023-09-19T07:20:22;7.07;;;3.20;;
948;SDS011;461;51.436;7.312;2023-09-19T07:22:54;10.57;;;3.10;;
948;SDS011;461;51.436;7.312;2023-09-19T07:25:20;8.70;;;3.47;;
948;SDS011;461;51.436;7.312;2023-09-19T11:27:28;6.90;;;1.90;;
948;SDS011;461;51.436;7.312;2023-09-19T11:30:25;4.70;;;2.17;;
948;SDS011;461;51.436;7.312;2023-09-19T11:35:49;5.17;;;2.10;;
948;SDS011;461;51.436;7.312;2023-09-19T11:46:28;6.03;;;2.57;;
948;SDS011;461;51.436;7.312;2023-09-19T11:48:58;5.30;;;2.20;;
948;SDS011;461;51.436;7.312;2023-09-19T11:51:37;8.47;;;2.70;;
948;SDS011;461;51.436;7.312;2023-09-19T11:54:10;8.63;;;2.43;;
948;SDS011;461;51.436;7.312;2023-09-19T11:56:56;5.07;;;2.10;;
948;SDS011;461;51.436;7.312;2023-09-19T11:59:29;4.30;;;2.03;;
948;SDS011;461;51.436;7.312;2023-09-19T12:01:57;3.47;;;2.33;;
948;SDS011;461;51.436;7.312;2023-09-19T12:07:09;4.90;;;2.27;;
948;SDS011;461;51.436;7.312;2023-09-19T12:09:40;12.33;;;3.03;;
948;SDS011;461;51.436;7.312;2023-09-19T12:12:23;5.03;;;2.03;;
948;SDS011;461;51.436;7.312;2023-09-19T12:14:52;5.27;;;3.67;;
948;SDS011;461;51.436;7.312;2023-09-19T12:17:19;15.73;;;4.40;;
948;SDS011;461;51.436;7.312;2023-09-19T12:19:52;4.67;;;2.13;;
948;SDS011;461;51.436;7.312;2023-09-19T12:22:18;6.80;;;1.90;;
948;SDS011;461;51.436;7.312;2023-09-19T12:24:45;4.33;;;2.20;;
948;SDS011;461;51.436;7.312;2023-09-19T12:27:12;8.63;;;2.03;;
948;SDS011;461;51.436;7.312;2023-09-19T14:11:05;3.17;;;1.60;;
948;SDS011;461;51.436;7.312;2023-09-19T14:13:31;3.17;;;1.47;;
948;SDS011;461;51.436;7.312;2023-09-19T14:15:57;3.43;;;1.50;;
948;SDS011;461;51.436;7.312;2023-09-19T14:18:23;5.43;;;1.60;;
948;SDS011;461;51.436;7.312;2023-09-19T14:20:50;8.47;;;1.67;;
948;SDS011;461;51.436;7.312;2023-09-19T14:23:18;3.53;;;1.77;;
948;SDS011;461;51.436;7.312;2023-09-19T14:25:44;4.63;;;1.93;;
948;SDS011;461;51.436;7.312;2023-09-19T14:28:10;4.90;;;1.87;;
948;SDS011;461;51.436;7.312;2023-09-19T14:30:36;5.23;;;1.90;;
948;SDS011;461;51.436;7.312;2023-09-19T14:33:03;7.53;;;1.97;;
948;SDS011;461;51.436;7.312;2023-09-19T14:35:30;1.73;;;1.20;;
948;SDS011;461;51.436;7.312;2023-09-19T14:37:56;3.80;;;2.13;;
948;SDS011;461;51.436;7.312;2023-09-19T14:40:22;5.33;;;1.80;;
948;SDS011;461;51.436;7.312;2023-09-19T14:42:48;4.20;;;1.30;;
948;SDS011;461;51.436;7.312;2023-09-19T14:45:14;3.00;;;1.50;;
948;SDS011;461;51.436;7.312;2023-09-19T14:47:43;3.40;;;1.47;;
948;SDS011;461;51.436;7.312;2023-09-19T14:50:09;4.53;;;1.50;;
948;SDS011;461;51.436;7.312;2023-09-19T14:52:37;3.50;;;1.70;;
948;SDS011;461;51.436;7.312;2023-09-19T14:55:04;4.40;;;1.50;;
948;SDS011;461;51.436;7.312;2023-09-19T15:03:13;3.90;;;1.60;;
948;SDS011;461;51.436;7.312;2023-09-19T15:05:39;4.00;;;1.67;;
948;SDS011;461;51.436;7.312;2023-09-19T15:08:06;2.97;;;1.37;;
948;SDS011;461;51.436;7.312;2023-09-19T15:10:32;4.47;;;1.50;;
948;SDS011;461;51.436;7.312;2023-09-19T15:12:58;3.70;;;1.90;;
948;SDS011;461;51.436;7.312;2023-09-19T15:15:26;6.53;;;1.40;;
948;SDS011;461;51.436;7.312;2023-09-19T15:17:55;6.00;;;1.57;;
948;SDS011;461;51.436;7.312;2023-09-19T15:20:21;3.00;;;1.50;;
948;SDS011;461;51.436;7.312;2023-09-19T15:22:48;1.97;;;1.47;;
948;SDS011;461;51.436;7.312;2023-09-19T15:25:14;3.60;;;1.47;;
948;SDS011;461;51.436;7.312;2023-09-19T15:27:40;9.03;;;2.07;;
948;SDS011;461;51.436;7.312;2023-09-19T15:30:07;8.83;;;1.60;;
948;SDS011;461;51.436;7.312;2023-09-19T15:32:33;4.90;;;1.93;;
948;SDS011;461;51.436;7.312;2023-09-19T15:34:59;3.70;;;1.50;;
948;SDS011;461;51.436;7.312;2023-09-19T15:37:26;3.50;;;1.40;;
948;SDS011;461;51.436;7.312;2023-09-19T15:39:52;2.60;;;1.30;;
948;SDS011;461;51.436;7.312;2023-09-19T15:42:18;5.30;;;1.77;;
948;SDS011;461;51.436;7.312;2023-09-19T15:44:44;2.27;;;1.20;;
948;SDS011;461;51.436;7.312;2023-09-19T15:47:11;2.87;;;1.50;;
948;SDS011;461;51.436;7.312;2023-09-19T15:49:39;7.93;;;1.70;;
948;SDS011;461;51.436;7.312;2023-09-19T15:52:05;2.67;;;1.37;;
948;SDS011;461;51.436;7.312;2023-09-19T15:54:33;4.33;;;1.30;;
948;SDS011;461;51.436;7.312;2023-09-19T15:57:00;4.07;;;1.37;;
948;SDS011;461;51.436;7.312;2023-09-19T15:59:27;3.20;;;2.43;;
948;SDS011;461;51.436;7.312;2023-09-19T16:01:55;2.50;;;1.20;;
948;SDS011;461;51.436;7.312;2023-09-19T16:04:21;3.27;;;1.30;;
948;SDS011;461;51.436;7.312;2023-09-19T16:06:47;2.60;;;1.67;;
948;SDS011;461;51.436;7.312;2023-09-19T16:09:22;5.07;;;1.50;;
948;SDS011;461;51.436;7.312;2023-09-19T16:11:48;3.67;;;1.20;;
948;SDS011;461;51.436;7.312;2023-09-19T16:14:14;1.83;;;1.40;;
948;SDS011;461;51.436;7.312;2023-09-19T16:16:40;3.57;;;1.47;;
948;SDS011;461;51.436;7.312;2023-09-19T16:19:07;3.27;;;1.70;;
948;SDS011;461;51.436;7.312;2023-09-19T16:21:36;1.50;;;1.20;;
948;SDS011;461;51.436;7.312;2023-09-19T16:24:02;1.63;;;0.97;;
948;SDS011;461;51.436;7.312;2023-09-19T16:26:28;3.43;;;1.50;;
948;SDS011;461;51.436;7.312;2023-09-19T16:28:56;3.27;;;1.53;;
948;SDS011;461;51.436;7.312;2023-09-19T16:31:25;4.27;;;1.33;;
948;SDS011;461;51.436;7.312;2023-09-19T16:33:52;5.73;;;1.67;;
948;SDS011;461;51.436;7.312;2023-09-19T16:36:19;4.40;;;1.67;;
948;SDS011;461;51.436;7.312;2023-09-19T16:38:47;7.73;;;2.30;;
948;SDS011;461;51.436;7.312;2023-09-19T16:41:13;6.57;;;1.70;;
948;SDS011;461;51.436;7.312;2023-09-19T16:43:41;3.43;;;1.57;;
948;SDS011;461;51.436;7.312;2023-09-19T16:46:08;4.03;;;1.37;;
948;SDS011;461;51.436;7.312;2023-09-19T16:48:38;3.20;;;1.43;;
948;SDS011;461;51.436;7.312;2023-09-19T16:51:09;4.20;;;1.37;;
948;SDS011;461;51.436;7.312;2023-09-19T16:53:38;3.80;;;1.70;;
948;SDS011;461;51.436;7.312;2023-09-19T16:56:05;5.50;;;1.27;;
948;SDS011;461;51.436;7.312;2023-09-19T16:58:37;3.27;;;1.47;;
948;SDS011;461;51.436;7.312;2023-09-19T17:01:07;4.90;;;1.40;;
948;SDS011;461;51.436;7.312;2023-09-19T17:03:37;3.50;;;1.50;;
948;SDS011;461;51.436;7.312;2023-09-19T17:06:05;3.27;;;1.13;;
948;SDS011;461;51.436;7.312;2023-09-19T17:08:31;3.17;;;1.30;;
948;SDS011;461;51.436;7.312;2023-09-19T17:11:01;3.43;;;1.20;;
948;SDS011;461;51.436;7.312;2023-09-19T17:13:27;5.27;;;1.30;;
948;SDS011;461;51.436;7.312;2023-09-19T17:16:03;2.73;;;1.20;;
948;SDS011;461;51.436;7.312;2023-09-19T17:18:30;4.20;;;1.40;;
948;SDS011;461;51.436;7.312;2023-09-19T17:20:57;4.27;;;1.47;;
948;SDS011;461;51.436;7.312;2023-09-19T17:23:28;5.90;;;1.20;;
948;SDS011;461;51.436;7.312;2023-09-19T17:28:27;7.17;;;1.27;;
948;SDS011;461;51.436;7.312;2023-09-19T17:30:53;2.10;;;1.60;;
948;SDS011;461;51.436;7.312;2023-09-19T17:33:22;4.90;;;1.50;;
948;SDS011;461;51.436;7.312;2023-09-19T17:35:49;3.17;;;1.57;;
948;SDS011;461;51.436;7.312;2023-09-19T17:38:15;3.10;;;1.77;;
948;SDS011;461;51.436;7.312;2023-09-19T17:40:41;3.50;;;1.50;;
948;SDS011;461;51.436;7.312;2023-09-19T17:43:07;2.10;;;1.40;;
948;SDS011;461;51.436;7.312;2023-09-19T17:45:33;3.20;;;1.60;;
948;SDS011;461;51.436;7.312;2023-09-19T17:48:00;3.97;;;1.93;;
948;SDS011;461;51.436;7.312;2023-09-19T17:50:29;3.20;;;1.40;;
948;SDS011;461;51.436;7.312;2023-09-19T17:52:56;1.40;;;1.23;;
948;SDS011;461;51.436;7.312;2023-09-19T17:55:23;3.27;;;1.50;;
948;SDS011;461;51.436;7.312;2023-09-19T17:57:49;5.47;;;1.80;;
948;SDS011;461;51.436;7.312;2023-09-19T18:00:15;3.23;;;1.97;;
948;SDS011;461;51.436;7.312;2023-09-19T18:02:41;3.50;;;1.57;;
948;SDS011;461;51.436;7.312;2023-09-19T18:05:07;3.30;;;1.57;;
948;SDS011;461;51.436;7.312;2023-09-19T18:07:42;3.63;;;1.67;;
948;SDS011;461;51.436;7.312;2023-09-19T18:10:10;6.43;;;2.03;;
948;SDS011;461;51.436;7.312;2023-09-19T18:12:38;3.87;;;1.80;;
948;SDS011;461;51.436;7.312;2023-09-19T18:15:05;3.63;;;1.90;;
948;SDS011;461;51.436;7.312;2023-09-19T18:17:31;3.60;;;1.40;;
948;SDS011;461;51.436;7.312;2023-09-19T18:22:34;3.07;;;1.43;;
948;SDS011;461;51.436;7.312;2023-09-19T18:25:01;3.87;;;1.70;;
948;SDS011;461;51.436;7.312;2023-09-19T18:27:27;7.00;;;1.77;;
948;SDS011;461;51.436;7.312;2023-09-19T18:29:56;5.43;;;1.83;;
948;SDS011;461;51.436;7.312;2023-09-19T18:32:22;3.77;;;1.30;;
948;SDS011;461;51.436;7.312;2023-09-19T18:34:48;4.83;;;2.33;;
948;SDS011;461;51.436;7.312;2023-09-19T18:37:14;3.17;;;1.57;;
948;SDS011;461;51.436;7.312;2023-09-19T18:39:40;6.90;;;2.87;;
948;SDS011;461;51.436;7.312;2023-09-19T18:42:05;2.90;;;1.77;;
948;SDS011;461;51.436;7.312;2023-09-19T18:44:33;3.80;;;1.53;;
948;SDS011;461;51.436;7.312;2023-09-19T18:46:58;2.77;;;1.63;;
948;SDS011;461;51.436;7.312;2023-09-19T18:49:25;4.77;;;2.10;;
948;SDS011;461;51.436;7.312;2023-09-19T18:51:51;3.43;;;1.97;;
948;SDS011;461;51.436;7.312;2023-09-19T18:54:17;3.57;;;1.77;;
948;SDS011;461;51.436;7.312;2023-09-19T18:56:43;2.97;;;1.90;;
948;SDS011;461;51.436;7.312;2023-09-19T18:59:09;3.33;;;2.30;;
948;SDS011;461;51.436;7.312;2023-09-19T19:01:38;2.53;;;1.77;;
948;SDS011;461;51.436;7.312;2023-09-19T19:04:04;3.50;;;1.80;;
948;SDS011;461;51.436;7.312;2023-09-19T19:06:30;2.77;;;1.67;;
948;SDS011;461;51.436;7.312;2023-09-19T19:08:56;3.73;;;2.17;;
948;SDS011;461;51.436;7.312;2023-09-19T19:11:21;5.03;;;1.70;;
948;SDS011;461;51.436;7.312;2023-09-19T19:13:53;5.37;;;1.77;;
948;SDS011;461;51.436;7.312;2023-09-19T19:16:19;4.10;;;2.20;;
948;SDS011;461;51.436;7.312;2023-09-19T19:18:45;5.73;;;1.57;;
948;SDS011;461;51.436;7.312;2023-09-19T19:21:11;3.23;;;1.70;;
948;SDS011;461;51.436;7.312;2023-09-19T19:23:39;2.80;;;2.03;;
948;SDS011;461;51.436;7.312;2023-09-19T19:26:06;5.43;;;1.40;;
948;SDS011;461;51.436;7.312;2023-09-19T19:28:34;3.00;;;1.73;;
948;SDS011;461;51.436;7.312;2023-09-19T19:31:01;4.50;;;1.80;;
948;SDS011;461;51.436;7.312;2023-09-19T19:33:28;4.90;;;1.50;;
948;SDS011;461;51.436;7.312;2023-09-19T19:36:02;4.70;;;1.90;;
948;SDS011;461;51.436;7.312;2023-09-19T19:38:36;3.93;;;1.70;;
948;SDS011;461;51.436;7.312;2023-09-19T19:41:03;3.40;;;1.40;;
948;SDS011;461;51.436;7.312;2023-09-19T19:43:30;3.40;;;2.03;;
948;SDS011;461;51.436;7.312;2023-09-19T19:45:57;5.77;;;1.80;;
948;SDS011;461;51.436;7.312;2023-09-19T19:48:24;3.10;;;2.00;;
948;SDS011;461;51.436;7.312;2023-09-19T19:50:51;2.20;;;1.53;;
948;SDS011;461;51.436;7.312;2023-09-19T19:53:19;3.53;;;1.87;;
948;SDS011;461;51.436;7.312;2023-09-19T19:55:45;3.53;;;1.70;;
948;SDS011;461;51.436;7.312;2023-09-19T19:58:12;2.23;;;1.10;;
948;SDS011;461;51.436;7.312;2023-09-19T20:00:40;3.00;;;1.40;;
948;SDS011;461;51.436;7.312;2023-09-19T20:03:08;3.47;;;1.80;;
948;SDS011;461;51.436;7.312;2023-09-19T20:05:39;4.90;;;1.63;;
948;SDS011;461;51.436;7.312;2023-09-19T20:08:06;6.83;;;1.67;;
948;SDS011;461;51.436;7.312;2023-09-19T20:10:36;3.47;;;1.60;;
948;SDS011;461;51.436;7.312;2023-09-19T20:13:04;2.83;;;1.73;;
948;SDS011;461;51.436;7.312;2023-09-19T20:15:34;4.40;;;1.70;;
948;SDS011;461;51.436;7.312;2023-09-19T20:18:00;4.27;;;2.07;;
948;SDS011;461;51.436;7.312;2023-09-19T20:20:27;6.10;;;2.20;;
948;SDS011;461;51.436;7.312;2023-09-19T20:22:53;3.00;;;1.57;;
948;SDS011;461;51.436;7.312;2023-09-19T20:25:20;2.87;;;1.80;;
948;SDS011;461;51.436;7.312;2023-09-19T20:27:48;3.50;;;1.70;;
948;SDS011;461;51.436;7.312;2023-09-19T20:30:14;2.50;;;1.60;;
948;SDS011;461;51.436;7.312;2023-09-19T20:32:41;2.73;;;1.70;;
948;SDS011;461;51.436;7.312;2023-09-19T20:35:09;3.27;;;1.97;;
948;SDS011;461;51.436;7.312;2023-09-19T20:37:38;5.03;;;2.33;;
948;SDS011;461;51.436;7.312;2023-09-19T20:40:05;2.73;;;1.83;;
948;SDS011;461;51.436;7.312;2023-09-19T20:42:35;6.90;;;2.77;;
948;SDS011;461;51.436;7.312;2023-09-19T20:45:01;5.10;;;2.20;;
948;SDS011;461;51.436;7.312;2023-09-19T20:47:27;2.67;;;1.50;;
948;SDS011;461;51.436;7.312;2023-09-19T20:49:53;4.60;;;1.97;;
948;SDS011;461;51.436;7.312;2023-09-19T20:52:19;5.57;;;2.40;;
948;SDS011;461;51.436;7.312;2023-09-19T20:54:45;5.00;;;2.00;;
948;SDS011;461;51.436;7.312;2023-09-19T20:57:12;8.53;;;2.47;;
948;SDS011;461;51.436;7.312;2023-09-19T20:59:39;4.37;;;1.93;;
948;SDS011;461;51.436;7.312;2023-09-19T21:02:05;2.70;;;1.80;;
948;SDS011;461;51.436;7.312;2023-09-19T21:04:32;3.60;;;1.93;;
948;SDS011;461;51.436;7.312;2023-09-19T21:06:59;6.30;;;2.23;;
948;SDS011;461;51.436;7.312;2023-09-19T21:09:25;5.57;;;1.80;;
948;SDS011;461;51.436;7.312;2023-09-19T21:11:52;3.30;;;1.80;;
948;SDS011;461;51.436;7.312;2023-09-19T21:14:19;2.83;;;1.87;;
948;SDS011;461;51.436;7.312;2023-09-19T21:16:45;2.83;;;1.83;;
948;SDS011;461;51.436;7.312;2023-09-19T21:19:11;3.27;;;2.07;;
948;SDS011;461;51.436;7.312;2023-09-19T21:21:37;2.50;;;1.80;;
948;SDS011;461;51.436;7.312;2023-09-19T21:24:03;2.33;;;1.53;;
948;SDS011;461;51.436;7.312;2023-09-19T21:26:31;4.57;;;1.90;;
948;SDS011;461;51.436;7.312;2023-09-19T21:28:57;4.03;;;2.07;;
948;SDS011;461;51.436;7.312;2023-09-19T21:31:25;5.10;;;2.20;;
948;SDS011;461;51.436;7.312;2023-09-19T21:33:51;4.77;;;1.90;;
948;SDS011;461;51.436;7.312;2023-09-19T21:36:22;4.57;;;2.27;;
948;SDS011;461;51.436;7.312;2023-09-19T21:38:49;4.23;;;2.20;;
948;SDS011;461;51.436;7.312;2023-09-19T21:41:21;4.77;;;1.90;;
948;SDS011;461;51.436;7.312;2023-09-19T21:43:48;3.33;;;2.00;;
948;SDS011;461;51.436;7.312;2023-09-19T21:46:17;3.10;;;2.00;;
948;SDS011;461;51.436;7.312;2023-09-19T21:48:44;6.67;;;2.30;;
948;SDS011;461;51.436;7.312;2023-09-19T21:51:13;2.83;;;1.93;;
948;SDS011;461;51.436;7.312;2023-09-19T21:53:40;3.80;;;2.17;;
948;SDS011;461;51.436;7.312;2023-09-19T21:56:08;9.40;;;2.00;;
948;SDS011;461;51.436;7.312;2023-09-19T21:58:34;2.40;;;2.03;;
948;SDS011;461;51.436;7.312;2023-09-19T22:01:36;4.20;;;2.30;;
948;SDS011;461;51.436;7.312;2023-09-19T22:04:11;2.97;;;1.83;;
948;SDS011;461;51.436;7.312;2023-09-19T22:07:14;5.03;;;2.63;;
948;SDS011;461;51.436;7.312;2023-09-19T23:02:33;4.03;;;3.63;;
948;SDS011;461;51.436;7.312;2023-09-19T23:05:06;7.20;;;2.03;;
948;SDS011;461;51.436;7.312;2023-09-19T23:07:42;3.30;;;2.10;;
948;SDS011;461;51.436;7.312;2023-09-19T23:10:18;5.37;;;2.33;;
948;SDS011;461;51.436;7.312;2023-09-19T23:12:44;3.13;;;1.83;;
948;SDS011;461;51.436;7.312;2023-09-19T23:15:14;7.87;;;2.57;;